createdAt,value
2022-10-05T00:02:22.995Z,9.40
2022-10-05T00:07:26.115Z,9.40
2022-10-05T00:12:30.175Z,9.32
2022-10-05T00:17:33.251Z,9.30
2022-10-05T00:22:36.574Z,9.40
2022-10-05T00:27:39.869Z,9.40
2022-10-05T00:32:44.719Z,9.40
2022-10-05T00:37:54.594Z,9.50
2022-10-05T00:43:20.319Z,9.44
2022-10-05T00:48:39.397Z,9.40
2022-10-05T00:53:48.467Z,9.40
2022-10-05T00:59:29.437Z,9.50
2022-10-05T01:04:54.284Z,9.58
2022-10-05T01:10:24.824Z,9.60
2022-10-05T01:15:52.082Z,9.50
2022-10-05T01:21:10.950Z,9.46
2022-10-05T01:26:29.217Z,9.40
2022-10-05T01:31:49.465Z,9.50
2022-10-05T01:37:22.325Z,9.60
2022-10-05T01:42:49.290Z,9.60
2022-10-05T01:48:17.081Z,9.60
2022-10-05T01:54:03.629Z,9.58
2022-10-05T01:59:49.009Z,9.50
2022-10-05T02:05:04.809Z,9.60
2022-10-05T02:10:28.988Z,9.70
2022-10-05T02:15:48.831Z,9.72
2022-10-05T02:20:55.899Z,9.70
2022-10-05T02:26:01.355Z,9.60
2022-10-05T02:31:14.877Z,9.60
2022-10-05T02:36:29.382Z,9.68
2022-10-05T02:42:21.130Z,9.70
2022-10-05T02:47:47.382Z,9.70
2022-10-05T02:53:23.866Z,9.60
2022-10-05T02:58:46.225Z,9.56
2022-10-05T03:04:22.323Z,9.50
2022-10-05T03:09:36.468Z,9.54
2022-10-05T03:14:53.809Z,9.60
2022-10-05T03:20:40.687Z,9.60
2022-10-05T03:26:30.032Z,9.60
2022-10-05T03:31:56.381Z,9.60
2022-10-05T03:37:21.708Z,9.60
2022-10-05T03:42:58.574Z,9.66
2022-10-05T03:48:32.435Z,9.70
2022-10-05T03:53:53.356Z,9.80
2022-10-05T03:59:10.498Z,9.70
2022-10-05T04:04:26.910Z,9.70
2022-10-05T04:09:46.947Z,9.70
2022-10-05T04:15:03.838Z,9.80
2022-10-05T04:20:31.218Z,9.90
2022-10-05T04:25:53.283Z,9.98
2022-10-05T04:30:56.533Z,10.00
2022-10-05T04:36:22.724Z,9.90
2022-10-05T04:42:24.619Z,9.90
2022-10-05T04:48:08.595Z,9.90
2022-10-05T04:53:43.854Z,9.92
2022-10-05T04:59:17.874Z,10.00
2022-10-05T05:05:14.836Z,10.00
2022-10-05T05:10:52.836Z,10.00
2022-10-05T05:16:31.574Z,10.00
2022-10-05T05:22:02.075Z,10.00
2022-10-05T05:27:29.942Z,10.10
2022-10-05T05:33:19.762Z,10.20
2022-10-05T05:38:42.532Z,10.30
2022-10-05T05:43:57.696Z,10.30
2022-10-05T05:49:15.142Z,10.30
2022-10-05T05:54:39.537Z,10.38
2022-10-05T06:00:14.186Z,10.40
2022-10-05T06:05:38.479Z,10.60
2022-10-05T06:10:53.163Z,10.70
2022-10-05T06:16:04.625Z,10.80
2022-10-05T06:21:32.144Z,10.80
2022-10-05T06:27:06.691Z,10.80
2022-10-05T06:32:49.972Z,10.86
2022-10-05T06:38:17.322Z,11.00
2022-10-05T06:43:56.902Z,11.08
2022-10-05T06:49:53.235Z,11.10
2022-10-05T06:54:58.821Z,11.20
2022-10-05T07:00:16.338Z,11.30
2022-10-05T07:06:12.148Z,11.42
2022-10-05T07:11:58.350Z,11.70
2022-10-05T07:17:45.848Z,11.80
2022-10-05T07:22:48.946Z,11.90
2022-10-05T07:28:03.968Z,12.12
2022-10-05T07:33:13.283Z,12.22
2022-10-05T07:38:38.202Z,12.30
2022-10-05T07:44:45.633Z,12.30
2022-10-05T07:50:12.279Z,12.40
2022-10-05T07:55:27.013Z,12.60
2022-10-05T08:01:09.056Z,12.78
2022-10-05T08:06:32.452Z,12.90
2022-10-05T08:12:05.211Z,13.00
2022-10-05T08:17:42.817Z,13.00
2022-10-05T08:23:02.594Z,13.10
2022-10-05T08:28:18.811Z,13.10
2022-10-05T08:33:25.474Z,13.20
2022-10-05T08:38:33.862Z,13.30
2022-10-05T08:44:09.605Z,13.60
2022-10-05T08:49:42.852Z,13.78
2022-10-05T08:55:10.777Z,13.70
2022-10-05T09:00:50.641Z,13.60
2022-10-05T09:06:27.318Z,13.60
2022-10-05T09:11:57.684Z,13.72
2022-10-05T09:18:07.677Z,13.80
2022-10-05T09:23:43.099Z,13.80
2022-10-05T09:29:23.170Z,13.90
2022-10-05T09:34:49.298Z,14.10
2022-10-05T09:40:27.873Z,14.20
2022-10-05T09:45:53.632Z,14.30
2022-10-05T09:51:32.166Z,14.40
2022-10-05T09:57:04.319Z,14.50
2022-10-05T10:02:41.340Z,14.70
2022-10-05T10:08:09.361Z,14.90
2022-10-05T10:13:30.453Z,14.90
2022-10-05T10:18:58.505Z,15.10
2022-10-05T10:24:19.912Z,15.30
2022-10-05T10:29:59.362Z,15.60
2022-10-05T10:35:20.912Z,15.80
2022-10-05T10:41:06.967Z,15.90
2022-10-05T10:46:31.514Z,16.00
2022-10-05T10:52:08.036Z,16.10
2022-10-05T10:57:26.369Z,16.28
2022-10-05T11:02:50.873Z,16.20
2022-10-05T11:08:21.258Z,16.38
2022-10-05T11:13:47.878Z,16.54
2022-10-05T11:19:20.582Z,16.70
2022-10-05T11:24:41.854Z,16.70
2022-10-05T11:30:15.605Z,16.70
2022-10-05T11:35:58.842Z,16.80
2022-10-05T11:41:36.336Z,16.90
2022-10-05T11:46:54.985Z,16.90
2022-10-05T11:52:25.941Z,17.10
2022-10-05T11:57:41.417Z,17.20
2022-10-05T12:03:09.497Z,17.20
2022-10-05T12:08:33.593Z,17.30
2022-10-05T12:13:45.200Z,17.30
2022-10-05T12:19:27.524Z,17.30
2022-10-05T12:25:15.600Z,17.40
2022-10-05T12:30:40.442Z,17.50
2022-10-05T12:36:01.938Z,17.60
2022-10-05T12:41:18.703Z,17.50
2022-10-05T12:46:34.281Z,17.56
2022-10-05T12:52:00.875Z,17.70
2022-10-05T12:57:24.498Z,17.68
2022-10-05T13:02:49.418Z,17.60
2022-10-05T13:08:00.410Z,17.54
2022-10-05T13:13:37.060Z,17.60
2022-10-05T13:19:01.794Z,17.72
2022-10-05T13:24:35.843Z,17.80
2022-10-05T13:30:04.801Z,17.90
2022-10-05T13:35:32.040Z,17.90
2022-10-05T13:40:53.927Z,17.80
2022-10-05T13:46:21.938Z,17.70
2022-10-05T13:52:18.769Z,17.60
2022-10-05T13:57:45.372Z,17.60
2022-10-05T14:02:53.725Z,17.54
2022-10-05T14:08:02.575Z,17.60
2022-10-05T14:13:27.838Z,17.60
2022-10-05T14:18:36.564Z,17.50
2022-10-05T14:23:39.739Z,17.50
2022-10-05T14:28:58.390Z,17.30
2022-10-05T14:34:29.342Z,17.20
2022-10-05T14:39:35.613Z,17.18
2022-10-05T14:44:38.763Z,17.10
2022-10-05T14:50:10.953Z,17.10
2022-10-05T14:55:53.138Z,17.20
2022-10-05T15:01:35.279Z,17.18
2022-10-05T15:06:47.297Z,17.00
2022-10-05T15:12:00.268Z,16.88
2022-10-05T15:17:54.685Z,16.80
2022-10-05T15:23:26.285Z,16.70
2022-10-05T15:28:39.907Z,16.60
2022-10-05T15:33:57.659Z,16.50
2022-10-05T15:39:03.874Z,16.50
2022-10-05T15:44:49.192Z,16.46
2022-10-05T15:50:32.528Z,16.30
2022-10-05T15:55:56.266Z,16.20
2022-10-05T16:01:31.437Z,16.10
2022-10-05T16:07:02.096Z,15.90
2022-10-05T16:12:13.987Z,15.70
2022-10-05T16:17:57.502Z,15.70
2022-10-05T16:23:12.501Z,15.60
2022-10-05T16:29:12.547Z,15.40
2022-10-05T16:34:49.519Z,15.30
2022-10-05T16:40:01.652Z,15.10
2022-10-05T16:45:45.943Z,15.00
2022-10-05T16:50:58.350Z,14.84
2022-10-05T16:56:09.355Z,14.80
2022-10-05T17:01:43.927Z,14.80
2022-10-05T17:07:20.576Z,14.70
2022-10-05T17:12:29.603Z,14.60
2022-10-05T17:18:17.345Z,14.48
2022-10-05T17:23:47.395Z,14.40
2022-10-05T17:29:41.934Z,14.24
2022-10-05T17:35:04.287Z,14.20
2022-10-05T17:40:31.760Z,14.12
2022-10-05T17:45:34.711Z,14.00
2022-10-05T17:50:56.604Z,13.90
2022-10-05T17:56:05.185Z,13.70
2022-10-05T18:01:33.091Z,13.60
2022-10-05T18:06:45.276Z,13.50
2022-10-05T18:12:18.048Z,13.50
2022-10-05T18:17:54.950Z,13.40
2022-10-05T18:23:06.154Z,13.30
2022-10-05T18:28:22.944Z,13.20
2022-10-05T18:33:57.809Z,13.10
2022-10-05T18:39:34.093Z,13.00
2022-10-05T18:44:59.291Z,13.04
2022-10-05T18:50:40.438Z,13.00
2022-10-05T18:55:56.429Z,12.90
2022-10-05T19:01:28.233Z,12.80
2022-10-05T19:06:59.016Z,12.70
2022-10-05T19:12:26.146Z,12.60
2022-10-05T19:18:23.164Z,12.50
2022-10-05T19:24:12.165Z,12.44
2022-10-05T19:29:36.843Z,12.26
2022-10-05T19:35:06.223Z,12.10
2022-10-05T19:40:43.189Z,12.00
2022-10-05T19:46:31.130Z,11.90
2022-10-05T19:51:50.881Z,11.88
2022-10-05T19:56:55.801Z,11.80
2022-10-05T20:02:00.018Z,11.62
2022-10-05T20:07:04.857Z,11.50
2022-10-05T20:12:08.034Z,11.38
2022-10-05T20:17:55.769Z,11.30
2022-10-05T20:23:28.195Z,11.40
2022-10-05T20:28:32.862Z,11.50
2022-10-05T20:33:36.218Z,11.66
2022-10-05T20:38:41.223Z,11.80
2022-10-05T20:43:44.549Z,11.82
2022-10-05T20:48:47.610Z,11.90
2022-10-05T20:53:50.624Z,11.90
2022-10-05T20:58:53.707Z,12.00
2022-10-05T21:03:56.899Z,12.10
2022-10-05T21:08:59.972Z,12.20
2022-10-05T21:14:05.672Z,12.20
2022-10-05T21:19:14.301Z,12.10
2022-10-05T21:24:18.055Z,12.08
2022-10-05T21:29:21.239Z,12.10
2022-10-05T21:34:24.383Z,12.18
2022-10-05T21:39:27.485Z,12.20
2022-10-05T21:44:30.604Z,12.10
2022-10-05T21:49:34.379Z,12.08
2022-10-05T21:54:37.586Z,12.00
2022-10-05T21:59:40.943Z,12.10
2022-10-05T22:04:44.008Z,12.16
2022-10-05T22:09:51.839Z,12.14
2022-10-05T22:14:54.927Z,12.08
2022-10-05T22:20:01.773Z,12.00
2022-10-05T22:25:05.542Z,12.02
2022-10-05T22:30:09.650Z,12.10
2022-10-05T22:35:12.784Z,12.20
2022-10-05T22:40:15.990Z,12.20
2022-10-05T22:45:19.501Z,12.10
2022-10-05T22:50:22.713Z,12.08
2022-10-05T22:55:27.967Z,12.00
2022-10-05T23:00:53.327Z,12.10
2022-10-05T23:06:04.545Z,12.10
2022-10-05T23:11:13.265Z,12.10
2022-10-05T23:16:21.438Z,12.00
2022-10-05T23:21:28.566Z,11.90
2022-10-05T23:26:32.453Z,11.88
2022-10-05T23:31:37.119Z,11.90
2022-10-05T23:36:40.131Z,12.00
2022-10-05T23:41:44.347Z,12.00
2022-10-05T23:46:47.770Z,11.90
2022-10-05T23:51:50.902Z,11.80
2022-10-05T23:56:53.983Z,11.80
